sensor_id;sensor_type;location;lat;lon;timestamp;temperature;humidity
44900;DHT22;30628;51.188;6.770;2022-11-12T00:00:56;9.80;99.90
44900;DHT22;30628;51.188;6.770;2022-11-12T00:03:24;9.80;99.90
44900;DHT22;30628;51.188;6.770;2022-11-12T00:05:50;9.80;99.90
44900;DHT22;30628;51.188;6.770;2022-11-12T00:08:18;9.70;99.90
44900;DHT22;30628;51.188;6.770;2022-11-12T00:10:44;9.70;99.90
44900;DHT22;30628;51.188;6.770;2022-11-12T00:13:11;9.70;99.90
44900;DHT22;30628;51.188;6.770;2022-11-12T00:15:37;9.70;99.90
44900;DHT22;30628;51.188;6.770;2022-11-12T00:18:03;9.70;99.90
44900;DHT22;30628;51.188;6.770;2022-11-12T00:20:29;9.70;99.90
44900;DHT22;30628;51.188;6.770;2022-11-12T00:22:55;9.70;99.90
44900;DHT22;30628;51.188;6.770;2022-11-12T00:25:21;9.70;99.90
44900;DHT22;30628;51.188;6.770;2022-11-12T00:27:48;9.70;99.90
44900;DHT22;30628;51.188;6.770;2022-11-12T00:30:14;9.70;99.90
44900;DHT22;30628;51.188;6.770;2022-11-12T00:32:40;9.60;99.90
44900;DHT22;30628;51.188;6.770;2022-11-12T00:35:07;9.70;99.90
44900;DHT22;30628;51.188;6.770;2022-11-12T00:37:33;9.60;99.90
44900;DHT22;30628;51.188;6.770;2022-11-12T00:39:59;9.60;99.90
44900;DHT22;30628;51.188;6.770;2022-11-12T00:42:25;9.70;99.90
44900;DHT22;30628;51.188;6.770;2022-11-12T00:44:51;9.70;99.90
44900;DHT22;30628;51.188;6.770;2022-11-12T00:47:18;9.70;99.90
44900;DHT22;30628;51.188;6.770;2022-11-12T00:49:44;9.70;99.90
44900;DHT22;30628;51.188;6.770;2022-11-12T00:52:10;9.70;99.90
44900;DHT22;30628;51.188;6.770;2022-11-12T00:54:36;9.70;99.90
44900;DHT22;30628;51.188;6.770;2022-11-12T00:57:02;9.70;99.90
44900;DHT22;30628;51.188;6.770;2022-11-12T00:59:28;9.70;99.90
44900;DHT22;30628;51.188;6.770;2022-11-12T01:01:54;9.60;99.90
44900;DHT22;30628;51.188;6.770;2022-11-12T01:04:21;9.60;99.90
44900;DHT22;30628;51.188;6.770;2022-11-12T01:06:47;9.50;99.90
44900;DHT22;30628;51.188;6.770;2022-11-12T01:09:13;9.50;99.90
44900;DHT22;30628;51.188;6.770;2022-11-12T01:11:40;9.50;99.90
44900;DHT22;30628;51.188;6.770;2022-11-12T01:14:07;9.50;99.90
44900;DHT22;30628;51.188;6.770;2022-11-12T01:16:36;9.50;99.90
44900;DHT22;30628;51.188;6.770;2022-11-12T01:19:05;9.50;99.90
44900;DHT22;30628;51.188;6.770;2022-11-12T01:21:32;9.50;99.90
44900;DHT22;30628;51.188;6.770;2022-11-12T01:24:00;9.50;99.90
44900;DHT22;30628;51.188;6.770;2022-11-12T01:26:27;9.50;99.90
44900;DHT22;30628;51.188;6.770;2022-11-12T01:28:54;9.50;99.90
44900;DHT22;30628;51.188;6.770;2022-11-12T01:31:24;9.50;99.90
44900;DHT22;30628;51.188;6.770;2022-11-12T01:34:02;9.50;99.90
44900;DHT22;30628;51.188;6.770;2022-11-12T01:36:32;9.50;99.90
44900;DHT22;30628;51.188;6.770;2022-11-12T01:38:58;9.50;99.90
44900;DHT22;30628;51.188;6.770;2022-11-12T01:41:27;9.50;99.90
44900;DHT22;30628;51.188;6.770;2022-11-12T01:49:45;9.50;99.90
44900;DHT22;30628;51.188;6.770;2022-11-12T01:52:16;9.50;99.90
44900;DHT22;30628;51.188;6.770;2022-11-12T01:54:47;9.50;99.90
44900;DHT22;30628;51.188;6.770;2022-11-12T01:57:17;9.50;99.90
44900;DHT22;30628;51.188;6.770;2022-11-12T01:59:47;9.50;99.90
44900;DHT22;30628;51.188;6.770;2022-11-12T02:02:15;9.50;99.90
44900;DHT22;30628;51.188;6.770;2022-11-12T02:04:41;9.40;99.90
44900;DHT22;30628;51.188;6.770;2022-11-12T02:07:08;9.50;99.90
44900;DHT22;30628;51.188;6.770;2022-11-12T02:09:35;9.50;99.90
44900;DHT22;30628;51.188;6.770;2022-11-12T02:12:02;9.40;99.90
44900;DHT22;30628;51.188;6.770;2022-11-12T02:14:28;9.40;99.90
44900;DHT22;30628;51.188;6.770;2022-11-12T02:16:55;9.30;99.90
44900;DHT22;30628;51.188;6.770;2022-11-12T02:19:21;9.30;99.90
44900;DHT22;30628;51.188;6.770;2022-11-12T02:21:47;9.30;99.90
44900;DHT22;30628;51.188;6.770;2022-11-12T02:26:41;9.20;99.90
44900;DHT22;30628;51.188;6.770;2022-11-12T02:29:08;9.20;99.90
44900;DHT22;30628;51.188;6.770;2022-11-12T02:31:35;9.20;99.90
44900;DHT22;30628;51.188;6.770;2022-11-12T02:34:01;9.10;99.90
44900;DHT22;30628;51.188;6.770;2022-11-12T02:36:28;9.20;99.90
44900;DHT22;30628;51.188;6.770;2022-11-12T02:38:54;9.10;99.90
44900;DHT22;30628;51.188;6.770;2022-11-12T02:41:21;9.10;99.90
44900;DHT22;30628;51.188;6.770;2022-11-12T02:43:47;9.10;99.90
44900;DHT22;30628;51.188;6.770;2022-11-12T02:46:14;9.00;99.90
44900;DHT22;30628;51.188;6.770;2022-11-12T02:48:40;9.00;99.90
44900;DHT22;30628;51.188;6.770;2022-11-12T02:51:06;9.00;99.90
44900;DHT22;30628;51.188;6.770;2022-11-12T02:53:33;8.90;99.90
44900;DHT22;30628;51.188;6.770;2022-11-12T02:55:59;9.00;99.90
44900;DHT22;30628;51.188;6.770;2022-11-12T02:58:26;9.00;99.90
44900;DHT22;30628;51.188;6.770;2022-11-12T03:00:54;9.00;99.90
44900;DHT22;30628;51.188;6.770;2022-11-12T03:03:21;9.00;99.90
44900;DHT22;30628;51.188;6.770;2022-11-12T03:05:58;9.00;99.90
44900;DHT22;30628;51.188;6.770;2022-11-12T03:08:25;9.00;99.90
44900;DHT22;30628;51.188;6.770;2022-11-12T03:10:52;9.10;99.90
44900;DHT22;30628;51.188;6.770;2022-11-12T03:13:19;9.10;99.90
44900;DHT22;30628;51.188;6.770;2022-11-12T03:15:45;9.10;99.90
44900;DHT22;30628;51.188;6.770;2022-11-12T03:18:11;9.00;99.90
44900;DHT22;30628;51.188;6.770;2022-11-12T03:20:38;9.00;99.90
44900;DHT22;30628;51.188;6.770;2022-11-12T03:23:06;9.00;99.90
44900;DHT22;30628;51.188;6.770;2022-11-12T03:25:33;9.00;99.90
44900;DHT22;30628;51.188;6.770;2022-11-12T03:28:08;9.00;99.90
44900;DHT22;30628;51.188;6.770;2022-11-12T03:30:39;8.90;99.90
44900;DHT22;30628;51.188;6.770;2022-11-12T03:33:06;8.90;99.90
44900;DHT22;30628;51.188;6.770;2022-11-12T03:35:34;8.90;99.90
44900;DHT22;30628;51.188;6.770;2022-11-12T03:38:01;9.00;99.90
44900;DHT22;30628;51.188;6.770;2022-11-12T03:40:28;8.90;99.90
44900;DHT22;30628;51.188;6.770;2022-11-12T03:42:54;8.90;99.90
44900;DHT22;30628;51.188;6.770;2022-11-12T03:45:22;8.90;99.90
44900;DHT22;30628;51.188;6.770;2022-11-12T03:47:50;8.80;99.90
44900;DHT22;30628;51.188;6.770;2022-11-12T03:50:18;8.70;99.90
44900;DHT22;30628;51.188;6.770;2022-11-12T03:52:50;8.70;99.90
44900;DHT22;30628;51.188;6.770;2022-11-12T03:55:18;8.70;99.90
44900;DHT22;30628;51.188;6.770;2022-11-12T03:57:49;8.60;99.90
44900;DHT22;30628;51.188;6.770;2022-11-12T04:00:16;8.60;99.90
44900;DHT22;30628;51.188;6.770;2022-11-12T04:02:42;8.60;99.90
44900;DHT22;30628;51.188;6.770;2022-11-12T04:05:09;8.50;99.90
44900;DHT22;30628;51.188;6.770;2022-11-12T04:08:12;8.50;99.90
44900;DHT22;30628;51.188;6.770;2022-11-12T04:10:56;8.50;99.90
44900;DHT22;30628;51.188;6.770;2022-11-12T04:13:22;8.50;99.90
44900;DHT22;30628;51.188;6.770;2022-11-12T04:15:55;8.50;99.90
44900;DHT22;30628;51.188;6.770;2022-11-12T04:18:40;8.40;99.90
44900;DHT22;30628;51.188;6.770;2022-11-12T04:21:31;8.40;99.90
44900;DHT22;30628;51.188;6.770;2022-11-12T04:24:51;8.40;99.90
44900;DHT22;30628;51.188;6.770;2022-11-12T04:27:40;8.40;99.90
44900;DHT22;30628;51.188;6.770;2022-11-12T04:30:07;8.50;99.90
44900;DHT22;30628;51.188;6.770;2022-11-12T04:32:53;8.40;99.90
44900;DHT22;30628;51.188;6.770;2022-11-12T04:35:24;8.40;99.90
44900;DHT22;30628;51.188;6.770;2022-11-12T04:37:51;8.40;99.90
44900;DHT22;30628;51.188;6.770;2022-11-12T04:40:22;8.40;99.90
44900;DHT22;30628;51.188;6.770;2022-11-12T04:43:13;8.40;99.90
44900;DHT22;30628;51.188;6.770;2022-11-12T04:45:59;8.30;99.90
44900;DHT22;30628;51.188;6.770;2022-11-12T04:48:26;8.20;99.90
44900;DHT22;30628;51.188;6.770;2022-11-12T04:51:00;8.20;99.90
44900;DHT22;30628;51.188;6.770;2022-11-12T04:53:27;8.20;99.90
44900;DHT22;30628;51.188;6.770;2022-11-12T04:55:55;8.20;99.90
44900;DHT22;30628;51.188;6.770;2022-11-12T04:58:22;8.20;99.90
44900;DHT22;30628;51.188;6.770;2022-11-12T05:00:49;8.20;99.90
44900;DHT22;30628;51.188;6.770;2022-11-12T05:03:16;8.30;99.90
44900;DHT22;30628;51.188;6.770;2022-11-12T05:05:42;8.30;99.90
44900;DHT22;30628;51.188;6.770;2022-11-12T05:08:08;8.30;99.90
44900;DHT22;30628;51.188;6.770;2022-11-12T05:10:34;8.30;99.90
44900;DHT22;30628;51.188;6.770;2022-11-12T05:13:00;8.30;99.90
44900;DHT22;30628;51.188;6.770;2022-11-12T05:15:26;8.30;99.90
44900;DHT22;30628;51.188;6.770;2022-11-12T05:17:53;8.30;99.90
44900;DHT22;30628;51.188;6.770;2022-11-12T05:20:19;8.30;99.90
44900;DHT22;30628;51.188;6.770;2022-11-12T05:22:45;8.30;99.90
44900;DHT22;30628;51.188;6.770;2022-11-12T05:25:11;8.40;99.90
44900;DHT22;30628;51.188;6.770;2022-11-12T05:27:37;8.40;99.90
44900;DHT22;30628;51.188;6.770;2022-11-12T05:30:04;8.40;99.90
44900;DHT22;30628;51.188;6.770;2022-11-12T05:32:30;8.50;99.90
44900;DHT22;30628;51.188;6.770;2022-11-12T05:34:58;8.50;99.90
44900;DHT22;30628;51.188;6.770;2022-11-12T05:37:24;8.40;99.90
44900;DHT22;30628;51.188;6.770;2022-11-12T05:39:50;8.30;99.90
44900;DHT22;30628;51.188;6.770;2022-11-12T05:42:16;8.30;99.90
44900;DHT22;30628;51.188;6.770;2022-11-12T05:44:42;8.30;99.90
44900;DHT22;30628;51.188;6.770;2022-11-12T05:47:08;8.30;99.90
44900;DHT22;30628;51.188;6.770;2022-11-12T05:49:35;8.30;99.90
44900;DHT22;30628;51.188;6.770;2022-11-12T05:52:01;8.30;99.90
44900;DHT22;30628;51.188;6.770;2022-11-12T05:54:27;8.30;99.90
44900;DHT22;30628;51.188;6.770;2022-11-12T05:56:53;8.20;99.90
44900;DHT22;30628;51.188;6.770;2022-11-12T05:59:19;8.20;99.90
44900;DHT22;30628;51.188;6.770;2022-11-12T06:01:45;8.20;99.90
44900;DHT22;30628;51.188;6.770;2022-11-12T06:04:13;8.20;99.90
44900;DHT22;30628;51.188;6.770;2022-11-12T06:06:40;8.20;99.90
44900;DHT22;30628;51.188;6.770;2022-11-12T06:09:07;8.10;99.90
44900;DHT22;30628;51.188;6.770;2022-11-12T06:11:34;8.10;99.90
44900;DHT22;30628;51.188;6.770;2022-11-12T06:14:01;8.10;99.90
44900;DHT22;30628;51.188;6.770;2022-11-12T06:16:28;8.10;99.90
44900;DHT22;30628;51.188;6.770;2022-11-12T06:18:54;8.10;99.90
44900;DHT22;30628;51.188;6.770;2022-11-12T06:21:20;8.10;99.90
44900;DHT22;30628;51.188;6.770;2022-11-12T06:23:54;8.10;99.90
44900;DHT22;30628;51.188;6.770;2022-11-12T06:26:22;8.10;99.90
44900;DHT22;30628;51.188;6.770;2022-11-12T06:28:49;8.10;99.90
44900;DHT22;30628;51.188;6.770;2022-11-12T06:31:16;8.10;99.90
44900;DHT22;30628;51.188;6.770;2022-11-12T06:33:43;8.20;99.90
44900;DHT22;30628;51.188;6.770;2022-11-12T06:36:11;8.20;99.90
44900;DHT22;30628;51.188;6.770;2022-11-12T06:38:39;8.20;99.90
44900;DHT22;30628;51.188;6.770;2022-11-12T06:41:07;8.20;99.90
44900;DHT22;30628;51.188;6.770;2022-11-12T06:43:34;8.20;99.90
44900;DHT22;30628;51.188;6.770;2022-11-12T06:46:12;8.20;99.90
44900;DHT22;30628;51.188;6.770;2022-11-12T06:48:39;8.20;99.90
44900;DHT22;30628;51.188;6.770;2022-11-12T06:51:08;8.20;99.90
44900;DHT22;30628;51.188;6.770;2022-11-12T06:53:34;8.20;99.90
44900;DHT22;30628;51.188;6.770;2022-11-12T06:56:02;8.20;99.90
44900;DHT22;30628;51.188;6.770;2022-11-12T06:58:28;8.20;99.90
44900;DHT22;30628;51.188;6.770;2022-11-12T07:00:55;8.10;99.90
44900;DHT22;30628;51.188;6.770;2022-11-12T07:03:21;8.10;99.90
44900;DHT22;30628;51.188;6.770;2022-11-12T07:05:47;8.10;99.90
44900;DHT22;30628;51.188;6.770;2022-11-12T07:08:13;8.10;99.90
44900;DHT22;30628;51.188;6.770;2022-11-12T07:10:39;8.10;99.90
44900;DHT22;30628;51.188;6.770;2022-11-12T07:13:05;8.10;99.90
44900;DHT22;30628;51.188;6.770;2022-11-12T07:15:31;8.20;99.90
44900;DHT22;30628;51.188;6.770;2022-11-12T07:17:58;8.10;99.90
44900;DHT22;30628;51.188;6.770;2022-11-12T07:20:24;8.10;99.90
44900;DHT22;30628;51.188;6.770;2022-11-12T07:22:50;8.20;99.90
44900;DHT22;30628;51.188;6.770;2022-11-12T07:25:16;8.10;99.90
44900;DHT22;30628;51.188;6.770;2022-11-12T07:27:42;8.10;99.90
44900;DHT22;30628;51.188;6.770;2022-11-12T07:30:10;8.20;99.90
44900;DHT22;30628;51.188;6.770;2022-11-12T07:32:36;8.20;99.90
44900;DHT22;30628;51.188;6.770;2022-11-12T07:35:02;8.30;99.90
44900;DHT22;30628;51.188;6.770;2022-11-12T07:37:28;8.30;99.90
44900;DHT22;30628;51.188;6.770;2022-11-12T07:39:54;8.30;99.90
44900;DHT22;30628;51.188;6.770;2022-11-12T07:42:20;8.40;99.90
44900;DHT22;30628;51.188;6.770;2022-11-12T07:44:47;8.40;99.90
44900;DHT22;30628;51.188;6.770;2022-11-12T07:47:13;8.40;99.90
44900;DHT22;30628;51.188;6.770;2022-11-12T07:49:39;8.50;99.90
44900;DHT22;30628;51.188;6.770;2022-11-12T07:52:05;8.50;99.90
44900;DHT22;30628;51.188;6.770;2022-11-12T07:54:31;8.50;99.90
44900;DHT22;30628;51.188;6.770;2022-11-12T07:56:57;8.60;99.90
44900;DHT22;30628;51.188;6.770;2022-11-12T07:59:23;8.60;99.90
44900;DHT22;30628;51.188;6.770;2022-11-12T08:01:49;8.60;99.90
44900;DHT22;30628;51.188;6.770;2022-11-12T08:04:15;8.70;99.90
44900;DHT22;30628;51.188;6.770;2022-11-12T08:06:42;8.60;99.90
44900;DHT22;30628;51.188;6.770;2022-11-12T08:09:08;8.60;99.90
44900;DHT22;30628;51.188;6.770;2022-11-12T08:11:35;8.70;99.90
44900;DHT22;30628;51.188;6.770;2022-11-12T08:14:01;8.80;99.90
44900;DHT22;30628;51.188;6.770;2022-11-12T08:16:27;8.80;99.90
44900;DHT22;30628;51.188;6.770;2022-11-12T08:18:54;8.90;99.90
44900;DHT22;30628;51.188;6.770;2022-11-12T08:21:20;8.90;99.90
44900;DHT22;30628;51.188;6.770;2022-11-12T08:23:47;8.90;99.90
44900;DHT22;30628;51.188;6.770;2022-11-12T08:26:15;8.90;99.90
44900;DHT22;30628;51.188;6.770;2022-11-12T08:28:42;8.90;99.90
44900;DHT22;30628;51.188;6.770;2022-11-12T08:31:14;8.90;99.90
44900;DHT22;30628;51.188;6.770;2022-11-12T08:33:41;9.00;99.90
44900;DHT22;30628;51.188;6.770;2022-11-12T08:36:09;9.10;99.90
44900;DHT22;30628;51.188;6.770;2022-11-12T08:38:36;9.10;99.90
44900;DHT22;30628;51.188;6.770;2022-11-12T08:41:09;9.10;99.90
44900;DHT22;30628;51.188;6.770;2022-11-12T08:43:36;9.10;99.90
44900;DHT22;30628;51.188;6.770;2022-11-12T08:46:03;9.10;99.90
44900;DHT22;30628;51.188;6.770;2022-11-12T08:48:30;9.20;99.90
44900;DHT22;30628;51.188;6.770;2022-11-12T08:50:56;9.20;99.90
44900;DHT22;30628;51.188;6.770;2022-11-12T08:53:24;9.20;99.90
44900;DHT22;30628;51.188;6.770;2022-11-12T08:55:54;9.30;99.90
44900;DHT22;30628;51.188;6.770;2022-11-12T08:58:20;9.20;99.90
44900;DHT22;30628;51.188;6.770;2022-11-12T09:00:47;9.30;99.90
44900;DHT22;30628;51.188;6.770;2022-11-12T09:03:17;9.40;99.90
44900;DHT22;30628;51.188;6.770;2022-11-12T09:05:43;9.40;99.90
44900;DHT22;30628;51.188;6.770;2022-11-12T09:08:13;9.50;99.90
44900;DHT22;30628;51.188;6.770;2022-11-12T09:10:40;9.50;99.90
44900;DHT22;30628;51.188;6.770;2022-11-12T09:13:06;9.50;99.90
44900;DHT22;30628;51.188;6.770;2022-11-12T09:15:32;9.50;99.90
44900;DHT22;30628;51.188;6.770;2022-11-12T09:18:01;9.60;99.90
44900;DHT22;30628;51.188;6.770;2022-11-12T09:20:28;9.60;99.90
44900;DHT22;30628;51.188;6.770;2022-11-12T09:22:59;9.70;99.90
44900;DHT22;30628;51.188;6.770;2022-11-12T09:25:25;9.70;99.90
44900;DHT22;30628;51.188;6.770;2022-11-12T09:27:52;9.80;99.90
44900;DHT22;30628;51.188;6.770;2022-11-12T09:30:18;9.80;99.90
44900;DHT22;30628;51.188;6.770;2022-11-12T09:32:44;9.90;99.90
44900;DHT22;30628;51.188;6.770;2022-11-12T09:35:10;9.90;99.90
44900;DHT22;30628;51.188;6.770;2022-11-12T09:37:37;10.00;99.90
44900;DHT22;30628;51.188;6.770;2022-11-12T09:40:05;10.10;99.90
44900;DHT22;30628;51.188;6.770;2022-11-12T09:42:40;10.10;99.90
44900;DHT22;30628;51.188;6.770;2022-11-12T09:45:21;10.20;99.90
44900;DHT22;30628;51.188;6.770;2022-11-12T09:47:54;10.20;99.90
44900;DHT22;30628;51.188;6.770;2022-11-12T09:53:16;10.30;99.90
